Carnarvon, Australia
Current Conditions -  °F | °C
As of 1:00 AM on Saturday 20 Dec 2014 (Local Time) from YCAR Reporting Station
Overcast Overcast  
Wind Chill: 72°   Ceiling: 1700
Heat Index: 72°   Visibility: 6mi
Dew Point: 63°   Wind: 16mph
Humidity: 73%   Direction: 190°S
Pressure: 29.85"   Gusts: NA
Location:  24.88°S, 113.66°E
Report Text: YCAR 191700Z AUTO 19014KT 9999 // OVC017 22/17 Q1011
Loading
Personal Weather Stations






























Interactive Weather Map New forecast layout! Learn more

10-Day Weather Forecast

Advertisements
Track Severe Weather on mobile